Date,TemperatureHighF,TemperatureAvgF,TemperatureLowF,DewpointHighF,DewpointAvgF,DewpointLowF,HumidityHigh,HumidityAvg,HumidityLow,PressureMaxIn,PressureMinIn,WindSpeedMaxMPH,WindSpeedAvgMPH,GustSpeedMaxMPH,PrecipitationSumIn
2014-1-1,47.9,34.6,22.8,29.0,24.6,20.0,89,69,43,30.32,30.02,7,1,13,0.00
2014-1-2,36.9,26.0,12.9,32.0,22.0,6.0,94,85,73,30.32,29.83,12,3,19,0.17
2014-1-3,20.1,13.0,6.3,10.0,5.2,-1.0,78,71,59,30.55,30.32,7,2,11,0.01
2014-1-4,40.8,26.2,13.2,25.0,15.9,8.0,81,67,43,30.30,30.03,9,2,23,0.07
2014-1-5,48.7,36.9,26.6,41.0,32.2,22.0,94,83,71,30.09,29.46,11,1,24,0.62
2014-1-6,26.2,2.4,-5.8,21.0,-5.8,-16.0,82,69,58,30.49,29.77,16,7,22,0.00
2014-1-7,12.6,3.8,-5.5,3.0,-6.1,-14.0,70,64,53,30.58,30.37,14,4,17,0.00
2014-1-8,30.7,20.5,9.6,22.0,11.4,2.0,81,68,57,30.51,30.41,8,1,10,0.00
2014-1-9,38.3,30.7,24.7,32.0,25.4,21.0,93,81,57,30.53,30.30,3,0,7,0.02
2014-1-10,51.5,42.1,33.0,48.0,39.7,31.0,94,91,84,30.30,29.72,6,1,10,0.01
2014-1-11,52.9,45.7,36.7,51.0,41.1,31.0,96,84,69,29.83,29.50,17,4,23,0.58
2014-1-12,47.8,38.9,35.0,35.0,31.7,29.0,86,76,59,30.08,29.83,7,2,12,0.00
2014-1-13,53.5,47.0,40.0,47.0,39.1,31.0,93,75,56,29.90,29.71,14,3,20,0.08
2014-1-14,50.2,41.7,33.8,43.0,33.1,22.0,89,73,46,29.95,29.68,10,3,20,0.03
2014-1-15,33.4,28.0,23.3,22.0,19.2,17.0,80,70,61,30.13,29.95,7,2,14,0.00
2014-1-16,32.4,25.6,18.5,29.0,20.2,13.0,88,80,69,30.09,29.79,9,2,14,0.00
2014-1-17,32.3,23.8,13.8,31.0,18.7,6.0,93,81,63,30.13,29.78,11,2,17,0.00
2014-1-18,27.2,21.0,13.8,24.0,15.4,7.0,90,79,62,30.11,29.80,8,2,14,0.00
2014-1-19,37.1,31.0,24.2,29.0,23.9,19.0,92,75,60,30.02,29.79,14,4,21,0.07
2014-1-20,45.6,38.7,34.3,31.0,27.5,25.0,83,65,55,29.92,29.73,9,2,14,0.00
2014-1-21,33.7,18.6,8.0,31.0,12.4,-3.0,93,77,60,30.24,29.79,13,4,21,0.01
2014-1-22,14.3,6.7,-2.2,8.0,-0.8,-6.0,83,72,57,30.25,30.09,8,1,13,0.00
2014-1-23,14.7,7.5,3.3,8.0,-2.0,-6.0,74,66,58,30.69,30.16,15,4,20,0.00
2014-1-24,22.7,10.0,-3.4,5.0,-0.3,-8.0,82,65,45,30.70,29.92,15,4,24,0.00
2014-1-25,36.0,23.6,14.5,27.0,15.2,2.0,91,72,44,29.96,29.49,15,6,23,0.07
2014-1-26,46.0,27.1,11.4,29.0,15.1,1.0,82,62,47,29.98,29.55,9,2,17,0.01
2014-1-27,43.1,15.0,3.6,33.0,1.6,-7.0,80,56,42,30.48,29.61,19,5,26,0.00
2014-1-28,10.4,3.3,-3.4,-5.0,-9.8,-14.0,69,55,39,30.55,30.41,8,2,13,0.00
2014-1-29,24.1,10.0,-4.8,7.0,-1.2,-10.0,79,63,40,30.43,30.29,16,2,16,0.00
2014-1-30,33.6,21.1,6.2,15.0,6.0,0.0,76,55,33,30.35,29.96,9,2,16,0.00
2014-1-31,44.0,37.4,33.2,24.0,15.5,10.0,60,41,33,30.16,30.05,8,1,11,0.00
2014-2-1,59.5,46.0,36.0,44.0,31.2,24.0,79,58,39,30.09,29.83,7,1,17,0.00
2014-2-2,48.8,34.8,28.5,42.0,30.6,23.0,91,84,73,30.24,29.93,10,4,14,0.23
2014-2-3,36.7,29.1,24.6,24.0,20.3,17.0,89,71,49,30.39,30.13,9,3,13,0.02
2014-2-4,32.1,27.3,23.4,27.0,21.3,17.0,92,78,65,30.41,29.90,10,2,16,0.00
2014-2-5,31.3,28.3,25.2,30.0,24.8,20.0,94,87,78,30.40,29.74,11,2,13,0.00
2014-2-6,25.0,21.4,13.7,20.0,14.9,5.0,85,76,68,30.50,30.40,7,2,10,0.01
2014-2-7,22.8,13.2,4.8,11.0,2.6,-3.0,78,63,46,30.53,30.40,6,1,10,0.00
2014-2-8,26.5,21.0,14.5,23.0,14.0,5.0,86,74,62,30.42,30.18,5,0,8,0.00
2014-2-9,28.8,26.6,21.5,26.0,20.8,12.0,91,79,62,30.27,30.10,7,1,14,0.00
2014-2-10,23.9,16.9,11.8,12.0,7.8,4.0,77,68,50,30.45,30.28,6,2,10,0.00
2014-2-11,22.9,13.4,5.4,9.0,4.3,0.0,78,68,51,30.54,30.39,6,2,10,0.00
2014-2-12,36.0,20.2,7.6,17.0,9.2,1.0,79,64,43,30.46,30.05,4,1,8,0.06
2014-2-13,42.6,30.8,17.7,20.0,14.1,9.0,75,53,27,30.05,29.66,5,1,10,0.22
2014-2-14,34.8,31.2,22.2,30.0,23.9,19.0,92,75,53,29.81,29.64,9,2,11,0.03
2014-2-15,29.2,23.6,18.8,19.0,16.9,15.0,88,76,61,30.15,29.81,7,2,11,0.16
2014-2-16,31.2,26.6,23.0,24.0,20.8,16.0,89,79,68,30.35,30.01,8,2,14,0.03
2014-2-17,39.1,27.7,15.3,37.0,22.3,12.0,93,80,65,30.35,29.77,20,2,24,0.45
2014-2-18,54.2,42.1,35.3,33.0,30.4,28.0,81,65,38,30.14,29.82,12,2,19,0.00
2014-2-19,53.3,44.0,35.8,43.0,34.7,31.0,94,72,49,30.09,29.71,13,2,19,0.05
2014-2-20,68.1,51.8,32.4,58.0,44.7,29.0,90,78,62,30.04,29.48,13,3,31,0.35
2014-2-21,51.8,43.0,34.6,48.0,27.4,15.0,88,57,28,29.99,29.55,18,6,34,0.04
2014-2-22,60.9,47.1,35.0,33.0,25.7,20.0,66,45,26,30.09,29.90,12,4,16,0.00
2014-2-23,40.9,35.9,28.4,33.0,28.5,17.0,89,75,56,30.23,30.02,9,2,12,0.02
2014-2-24,36.6,29.4,23.3,19.0,13.2,9.0,69,52,33,30.31,30.21,10,4,15,0.00
2014-2-25,32.8,28.6,23.8,19.0,17.2,13.0,78,63,53,30.24,30.11,10,3,15,0.00
2014-2-26,26.7,20.6,12.6,17.0,5.1,1.0,75,52,36,30.25,29.94,14,4,17,0.00
2014-2-27,26.5,21.6,15.5,10.0,2.7,-8.0,60,45,25,30.22,29.84,21,5,23,0.00
2014-2-28,40.7,24.5,11.8,14.0,6.7,2.0,68,49,26,30.30,30.11,8,1,13,0.00
2014-3-1,53.0,40.8,26.3,35.0,26.6,13.0,69,58,48,30.20,30.08,6,1,12,0.00
2014-3-2,42.1,27.8,17.0,30.0,23.8,14.0,90,85,63,30.29,30.13,10,2,16,0.19
2014-3-3,22.4,17.2,13.5,14.0,8.4,4.0,88,69,49,30.46,30.26,9,1,12,0.00
2014-3-4,35.7,21.9,10.1,21.0,12.5,4.0,82,68,48,30.44,30.20,4,1,7,0.07
2014-3-5,39.5,28.8,18.2,21.0,18.2,15.0,89,67,41,30.37,30.23,12,2,15,0.00
2014-3-6,49.1,33.4,22.4,27.0,20.6,14.0,80,61,41,30.36,30.11,8,2,12,0.00
2014-3-7,62.1,41.9,26.5,34.0,28.8,23.0,88,64,33,30.10,29.95,6,1,9,0.00
2014-3-8,57.2,43.2,31.2,38.0,32.4,28.0,87,68,39,30.18,29.98,11,2,14,0.00
2014-3-9,49.3,38.6,32.2,30.0,27.4,24.0,88,66,40,30.30,30.04,7,2,12,0.00
2014-3-10,63.7,49.2,35.6,40.0,34.4,27.0,76,59,38,30.04,29.73,12,3,22,0.00
2014-3-11,75.1,60.6,48.9,46.0,41.7,36.0,75,52,24,29.76,29.55,10,2,16,0.00
2014-3-12,60.9,42.5,26.6,55.0,36.2,15.0,95,79,50,30.03,29.22,14,4,23,0.56
2014-3-13,39.3,28.8,18.8,19.0,13.2,9.0,74,54,34,30.26,30.02,11,3,14,0.00
2014-3-14,63.2,49.2,32.6,38.0,28.8,20.0,64,47,32,30.13,29.78,19,6,34,0.00
2014-3-15,61.1,51.6,40.4,42.0,32.2,26.0,74,50,30,30.08,29.86,10,2,20,0.00
2014-3-16,45.6,34.0,29.2,30.0,19.1,9.0,71,56,41,30.15,30.00,16,6,22,0.00
2014-3-17,40.6,31.5,24.8,25.0,18.0,12.0,72,58,50,30.01,29.85,9,2,15,0.00
2014-3-18,56.9,41.9,27.4,41.0,32.0,23.0,85,69,53,29.99,29.83,11,2,14,0.00
2014-3-19,55.1,48.5,42.1,49.0,42.6,35.0,92,80,68,30.02,29.77,14,4,25,0.27
2014-3-20,53.7,44.9,35.4,35.0,29.8,25.0,74,57,43,30.14,30.00,15,4,18,0.00
2014-3-21,69.2,53.3,36.4,34.0,31.9,30.0,80,49,24,30.04,29.81,10,2,23,0.00
2014-3-22,58.0,49.5,41.3,36.0,32.0,28.0,68,52,34,30.19,29.80,11,4,18,0.00
2014-3-23,41.2,36.7,30.9,29.0,19.2,13.0,66,50,36,30.36,30.18,11,5,17,0.00
2014-3-24,41.9,32.7,23.6,16.0,13.8,11.0,71,48,31,30.39,30.12,7,1,9,0.00
2014-3-25,36.7,32.6,27.5,28.0,17.5,13.0,86,55,43,30.23,30.01,11,3,23,0.01
2014-3-26,42.8,31.3,20.9,18.0,13.3,9.0,70,49,28,30.41,30.23,6,2,15,0.00
2014-3-27,58.9,44.9,30.6,30.0,22.7,17.0,65,44,26,30.27,29.80,8,3,23,0.01
2014-3-28,60.1,54.1,46.4,53.0,44.8,34.0,90,72,39,30.09,29.77,18,5,24,0.18
2014-3-29,47.3,40.9,36.6,40.0,36.1,30.0,91,83,73,30.13,29.90,16,5,20,0.91
2014-3-30,56.0,41.8,30.9,33.0,28.5,25.0,80,62,35,30.24,30.13,8,2,15,0.00
2014-3-31,68.5,49.8,31.8,36.0,31.8,29.0,88,56,24,30.23,29.98,6,1,10,0.00
2014-4-1,77.2,63.6,51.5,42.0,34.6,26.0,63,38,18,30.05,29.91,19,4,30,0.00
2014-4-2,61.5,52.9,47.0,52.0,45.5,31.0,94,78,33,30.15,29.99,8,2,12,0.60
2014-4-3,64.7,56.5,52.6,60.0,54.4,51.0,96,92,83,30.02,29.66,11,2,17,1.30
2014-4-4,64.8,54.5,44.0,59.0,48.8,31.0,96,82,61,29.99,29.50,18,5,30,0.80
2014-4-5,54.1,44.9,39.1,32.0,29.6,27.0,68,56,40,30.19,29.99,11,3,23,0.00
2014-4-6,61.0,48.2,32.5,36.0,32.2,29.0,90,58,33,30.19,29.93,10,1,13,0.00
2014-4-7,57.3,51.3,46.0,55.0,45.3,36.0,95,81,59,29.92,29.33,10,2,25,1.02
2014-4-8,60.9,51.2,44.1,45.0,42.6,41.0,92,74,52,29.83,29.54,13,3,19,0.01
2014-4-9,63.1,52.9,43.4,43.0,36.0,30.0,79,56,29,30.04,29.83,7,2,16,0.00
2014-4-10,75.3,59.3,41.8,44.0,39.6,35.0,79,52,31,30.05,29.82,16,4,28,0.00
2014-4-11,74.0,66.6,54.8,53.0,44.9,37.0,62,46,32,30.07,29.91,12,4,18,0.00
2014-4-12,79.0,63.1,46.0,55.0,48.3,40.0,81,61,41,30.14,29.86,12,2,21,0.00
2014-4-13,83.3,73.3,65.3,57.0,51.9,43.0,65,49,26,29.93,29.71,16,5,24,0.00
2014-4-14,73.5,63.7,42.3,60.0,55.0,39.0,90,75,46,29.78,29.63,13,5,27,0.57
2014-4-15,41.6,36.2,32.6,38.0,25.2,17.0,92,67,46,30.27,29.77,12,5,17,0.19
2014-4-16,52.8,39.4,27.0,28.0,21.9,15.0,86,53,30,30.44,30.26,7,1,14,0.00
2014-4-17,69.7,51.9,34.7,42.0,33.7,27.0,79,54,27,30.36,30.23,12,2,15,0.00
2014-4-18,72.6,56.8,42.8,45.0,39.9,35.0,85,58,29,30.29,30.17,7,1,11,0.00
2014-4-19,71.3,59.9,49.7,45.0,39.8,34.0,77,50,27,30.30,30.20,13,3,19,0.00
2014-4-20,79.3,61.0,43.4,46.0,38.1,35.0,75,47,21,30.26,30.08,7,1,13,0.00
2014-4-21,78.1,64.1,47.0,54.0,46.1,43.0,85,56,31,30.08,29.84,11,2,14,0.00
2014-4-22,70.5,63.5,50.2,57.0,45.9,29.0,83,56,23,29.96,29.76,15,4,20,0.00
2014-4-23,62.6,51.6,41.5,36.0,32.1,29.0,65,49,33,30.10,29.95,10,2,14,0.00
2014-4-24,69.5,57.2,48.4,39.0,31.8,23.0,61,41,22,30.11,29.75,8,1,12,0.00
2014-4-25,67.0,58.3,52.5,57.0,47.4,34.0,93,70,43,29.90,29.62,13,2,20,0.24
2014-4-26,81.0,65.2,48.4,49.0,44.3,42.0,83,52,25,29.92,29.84,9,3,20,0.00
2014-4-27,79.6,64.8,49.4,49.0,43.4,37.0,64,48,33,30.02,29.81,8,2,16,0.00
2014-4-28,71.5,62.4,52.4,65.0,54.9,44.0,94,78,46,29.86,29.61,6,1,19,1.36
2014-4-29,77.7,65.2,54.7,61.0,56.2,47.0,95,76,36,29.87,29.52,12,3,24,0.45
2014-4-30,70.8,60.5,54.7,57.0,51.3,45.0,93,74,41,29.88,29.72,10,2,19,0.04
2014-5-1,59.8,54.8,48.6,46.0,38.9,35.0,73,56,40,29.90,29.85,18,5,22,0.00
2014-5-2,58.8,53.6,47.2,42.0,40.3,37.0,73,61,51,29.91,29.85,9,3,14,0.00
2014-5-3,69.9,58.0,44.7,44.0,39.8,32.0,85,55,27,29.93,29.80,10,3,20,0.00
2014-5-4,75.5,63.8,55.2,45.0,41.4,30.0,65,46,32,30.01,29.89,12,3,18,0.00
2014-5-5,75.2,59.4,48.7,50.0,41.0,30.0,64,51,37,30.00,29.77,9,2,14,0.00
2014-5-6,79.5,64.5,51.2,52.0,44.9,39.0,65,50,36,29.95,29.86,8,1,10,0.00
2014-5-7,86.5,71.1,55.5,61.0,54.2,48.0,83,58,34,29.96,29.87,9,2,22,0.00
2014-5-8,86.8,73.6,59.9,63.0,57.6,53.0,85,60,34,30.04,29.92,14,2,20,0.00
2014-5-9,76.7,70.1,64.1,64.0,59.4,55.0,77,69,58,29.97,29.82,18,3,22,0.02
2014-5-10,73.2,66.3,61.7,65.0,61.1,57.0,93,83,70,29.99,29.89,9,2,14,0.13
2014-5-11,84.9,69.7,55.5,67.0,61.7,54.0,96,78,52,30.12,29.95,10,2,15,0.04
2014-5-12,88.1,75.6,64.4,70.0,65.6,61.0,94,73,50,30.06,29.92,9,2,17,0.37
2014-5-13,85.5,72.4,66.0,68.0,64.2,59.0,91,77,41,30.03,29.94,8,1,16,0.00
2014-5-14,78.6,68.4,64.0,68.0,64.1,61.0,94,86,66,30.07,29.83,7,1,14,0.44
2014-5-15,65.9,56.2,49.5,64.0,50.5,40.0,94,81,65,30.06,29.71,14,4,19,0.40
2014-5-16,57.3,48.5,40.4,46.0,41.0,36.0,95,77,47,30.07,29.95,9,2,23,0.16
2014-5-17,58.0,50.1,44.0,45.0,40.2,35.0,89,70,44,30.24,30.05,8,2,14,0.05
2014-5-18,67.2,53.3,38.6,46.0,38.9,35.0,94,64,31,30.30,30.21,5,1,8,0.00
2014-5-19,73.7,58.4,42.5,49.0,43.0,40.0,90,61,32,30.30,30.09,5,1,10,0.00
2014-5-20,80.2,67.1,53.4,62.0,55.7,46.0,81,68,52,30.12,29.93,13,2,17,0.00
2014-5-21,83.5,72.6,63.1,69.0,63.5,58.0,90,73,62,29.96,29.80,16,3,22,0.12
2014-5-22,82.0,72.5,64.9,65.0,59.1,51.0,92,66,38,30.02,29.88,12,3,17,0.01
2014-5-23,77.2,68.4,60.0,52.0,47.7,45.0,69,49,34,30.11,30.02,10,3,15,0.00
2014-5-24,80.3,66.5,51.8,56.0,51.0,48.0,89,61,35,30.20,30.08,5,1,9,0.00
2014-5-25,85.2,70.8,56.6,57.0,54.1,51.0,88,60,34,30.16,30.04,5,1,9,0.00
2014-5-26,87.7,74.0,57.9,68.0,60.5,54.0,88,65,45,30.12,29.95,9,1,12,0.00
2014-5-27,88.6,79.0,70.2,70.0,66.7,63.0,87,68,44,30.00,29.88,10,2,15,0.02
2014-5-28,87.7,77.3,68.4,66.0,64.0,62.0,86,65,45,29.97,29.89,8,2,16,0.00
2014-5-29,82.6,77.0,72.5,70.0,68.2,67.0,87,75,64,30.03,29.95,6,1,10,0.01
2014-5-30,88.1,75.7,64.9,68.0,57.6,48.0,90,57,25,30.11,30.02,5,1,12,0.00
2014-5-31,88.1,75.0,59.9,59.0,54.2,49.0,84,52,28,30.17,30.04,11,1,14,0.00
2014-6-1,90.4,75.1,59.6,70.0,61.2,55.0,85,64,37,30.12,29.97,8,1,14,0.00
2014-6-2,82.1,76.7,71.9,70.0,66.9,63.0,88,72,61,30.08,29.94,11,3,19,0.02
2014-6-3,85.6,76.0,71.1,71.0,68.7,67.0,90,79,56,29.98,29.88,8,2,15,0.02
2014-6-4,82.2,71.0,66.1,75.0,66.7,60.0,96,86,67,29.91,29.62,11,2,15,1.48
2014-6-5,80.8,69.9,61.1,60.0,55.5,50.0,83,63,36,29.92,29.76,8,2,16,0.00
2014-6-6,83.2,70.3,56.6,57.0,51.5,44.0,91,57,27,29.99,29.91,7,1,9,0.00
2014-6-7,86.1,72.1,56.1,59.0,54.6,51.0,88,58,32,30.03,29.80,8,1,11,0.00
2014-6-8,75.0,70.1,63.7,66.0,61.2,58.0,88,73,60,29.94,29.68,10,2,17,0.02
2014-6-9,75.5,67.6,59.3,61.0,59.1,56.0,93,75,59,29.96,29.87,6,1,8,0.00
2014-6-10,81.4,68.5,63.5,70.0,64.1,60.0,94,86,65,29.89,29.77,5,1,8,0.59
2014-6-11,77.9,69.5,65.8,68.0,65.5,64.0,93,87,67,29.80,29.69,6,1,13,0.20
2014-6-12,79.5,70.7,64.2,66.0,63.7,61.0,96,80,59,29.85,29.74,9,1,13,0.01
2014-6-13,78.2,71.2,66.8,65.0,57.3,45.0,86,64,34,30.00,29.78,12,3,16,0.01
2014-6-14,79.5,67.0,51.1,54.0,48.2,44.0,85,54,34,30.12,30.00,9,1,10,0.00
2014-6-15,89.2,72.4,53.5,66.0,59.0,51.0,90,66,44,30.09,29.94,9,2,14,0.00
2014-6-16,89.9,80.1,70.4,72.0,67.8,63.0,81,67,49,30.10,30.00,9,2,16,0.00
2014-6-17,91.9,81.4,69.2,72.0,69.1,66.0,89,68,48,30.08,29.93,13,3,19,0.00
2014-6-18,92.0,82.8,73.2,73.0,70.2,67.0,88,67,47,30.06,29.93,9,2,20,0.00
2014-6-19,91.7,80.0,72.3,73.0,69.5,65.0,90,71,51,30.05,29.96,11,2,16,0.07
2014-6-20,88.9,75.7,70.3,74.0,70.8,68.0,95,85,58,30.03,29.88,6,1,11,0.54
2014-6-21,87.3,78.1,71.1,71.0,67.6,63.0,95,73,46,29.93,29.83,6,2,11,0.00
2014-6-22,90.7,78.1,66.9,70.0,66.4,64.0,90,69,45,29.91,29.79,6,1,13,0.00
2014-7-14,84.7,77.5,70.2,71.0,67.3,63.0,83,71,61,29.84,29.78,11,3,20,0.33
2014-7-15,75.2,70.3,63.6,65.0,56.1,46.0,88,63,37,29.93,29.79,13,3,15,0.02
2014-7-16,75.9,66.3,55.9,56.0,53.5,49.0,90,66,40,30.00,29.92,9,2,11,0.00
2014-7-17,79.4,68.0,55.8,57.0,52.8,48.0,90,62,35,30.10,30.00,7,1,12,0.00
2014-7-18,78.1,66.6,58.4,63.0,58.1,55.0,93,76,47,30.15,30.08,5,0,9,0.20
2014-7-19,73.8,68.6,63.3,66.0,63.9,62.0,94,85,74,30.08,29.99,3,0,8,0.02
2014-7-20,85.2,74.1,66.2,70.0,67.0,64.0,94,80,58,30.03,29.97,5,1,9,0.01
2014-7-21,91.2,77.7,66.1,70.0,67.5,64.0,94,73,46,30.09,30.00,4,1,8,0.00
2014-7-22,92.7,81.4,69.1,73.0,68.9,64.0,92,68,42,30.08,29.96,8,2,13,0.00
2014-7-23,83.9,76.1,70.4,72.0,69.2,66.0,90,80,63,30.05,29.90,12,2,16,0.35
2014-7-24,78.2,70.7,63.0,66.0,57.4,52.0,91,65,41,30.04,29.95,9,3,14,0.03
2014-7-25,82.1,70.1,57.1,62.0,57.0,54.0,89,65,43,30.09,29.93,5,1,9,0.00
2014-7-26,87.4,76.3,67.1,74.0,66.8,62.0,90,73,59,29.98,29.78,7,2,16,0.10
2014-7-27,83.8,74.0,69.9,76.0,70.1,64.0,95,88,70,29.84,29.64,9,2,16,0.21
2014-7-28,75.6,69.5,63.1,64.0,59.4,54.0,83,71,57,29.98,29.75,11,3,16,0.00
2014-7-29,75.7,65.0,55.1,58.0,52.8,49.0,84,67,44,30.05,29.97,7,2,12,0.00
2014-7-30,80.9,70.3,59.3,63.0,59.3,56.0,91,70,46,30.04,29.98,11,2,16,0.00
2014-7-31,85.6,73.7,63.0,64.0,61.2,58.0,89,67,41,30.06,30.01,7,1,11,0.00
2014-8-1,86.8,74.3,62.4,66.0,61.7,58.0,91,68,41,30.08,29.99,4,1,12,0.00
2014-8-2,83.3,74.2,65.5,65.0,62.3,58.0,88,68,47,30.07,30.01,10,2,16,0.00
2014-8-3,88.3,73.9,61.5,64.0,61.4,57.0,92,68,35,30.12,30.02,7,1,10,0.00
2014-8-4,91.1,76.4,63.1,64.0,59.7,51.0,90,61,28,30.11,30.00,5,1,10,0.00
2014-8-5,84.5,74.7,63.3,67.0,63.0,60.0,89,69,45,30.04,29.96,10,1,14,0.00
2014-8-6,84.4,76.6,68.5,68.0,65.7,63.0,89,70,51,29.99,29.93,9,2,11,0.00
2014-8-7,83.6,74.5,65.2,66.0,59.3,56.0,78,60,42,30.07,29.97,5,1,13,0.00
2014-8-8,78.1,72.3,67.3,64.0,61.7,60.0,81,70,59,30.04,29.96,3,0,9,0.00
2014-8-9,83.4,74.8,66.4,71.0,67.0,63.0,89,77,62,30.00,29.92,6,1,11,0.00
2014-8-10,87.9,78.1,71.4,74.0,70.4,67.0,90,78,59,29.97,29.86,3,1,8,0.05
2014-8-11,84.9,76.6,73.4,74.0,71.6,70.0,92,85,63,29.90,29.74,9,1,15,0.42
2014-8-12,76.0,71.9,66.2,70.0,64.2,58.0,93,78,60,29.92,29.76,13,4,19,0.01
2014-8-13,81.2,71.0,62.0,59.0,56.9,55.0,83,63,41,30.02,29.92,9,3,14,0.00
2014-8-14,83.1,73.9,66.5,64.0,59.6,54.0,88,63,41,30.02,29.92,9,2,14,0.02
2014-8-15,81.3,69.3,59.3,57.0,48.2,37.0,82,52,21,30.05,29.95,7,2,13,0.00
2014-8-16,81.5,69.2,53.7,67.0,58.1,50.0,87,69,47,30.00,29.93,9,1,11,0.00
2014-8-17,80.3,75.2,70.3,70.0,67.6,66.0,85,77,67,29.96,29.85,6,0,8,0.00
2014-8-18,87.9,78.4,70.9,72.0,69.4,67.0,90,75,57,29.86,29.74,6,1,9,0.00
2014-8-19,89.2,79.5,69.3,72.0,69.4,67.0,93,73,50,29.82,29.75,8,2,15,0.00
2014-8-20,87.1,74.7,66.6,72.0,68.2,64.0,95,81,55,30.00,29.78,13,2,26,0.74
2014-8-21,84.8,75.0,69.4,76.0,71.2,67.0,95,88,70,30.06,29.94,4,0,7,0.37
2014-8-22,87.6,77.9,70.3,77.0,72.7,69.0,96,85,65,30.03,29.89,8,1,12,0.59
2014-8-23,94.1,79.9,72.2,77.0,73.6,71.0,95,83,53,29.96,29.86,6,0,9,0.63
2014-8-24,92.8,81.1,72.6,75.0,72.0,70.0,96,76,49,29.99,29.90,3,0,8,0.00
2014-8-25,92.4,80.1,70.9,74.0,71.1,69.0,92,76,50,30.04,29.97,5,1,8,0.00
2014-8-26,93.7,79.0,70.1,74.0,69.8,67.0,93,76,49,30.10,30.01,3,0,16,0.60
2014-8-27,92.5,80.9,69.9,75.0,71.6,69.0,96,76,50,30.05,29.94,8,2,12,0.01
2014-8-28,88.5,78.8,70.2,71.0,66.6,63.0,86,67,49,30.05,29.97,6,1,10,0.00
2014-8-29,93.0,78.4,67.9,73.0,66.1,60.0,84,67,47,30.05,29.92,6,1,9,0.00
2014-8-30,88.8,77.0,70.7,73.0,69.5,67.0,93,79,51,30.01,29.95,7,1,12,0.10
2014-8-31,82.9,75.6,71.7,73.0,70.8,70.0,95,85,67,30.00,29.93,8,1,13,0.11
2014-9-1,87.1,78.3,71.6,76.0,72.2,69.0,94,82,61,29.96,29.85,10,2,20,0.40
2014-9-2,80.1,74.7,67.2,72.0,70.0,65.0,94,85,70,29.96,29.87,11,2,24,0.61
2014-9-3,87.4,75.1,67.1,72.0,67.0,63.0,98,79,46,30.05,29.95,5,1,9,0.02
2014-9-4,91.0,77.5,64.9,73.0,68.3,63.0,94,76,48,30.08,29.99,5,1,9,0.00
2014-9-5,91.2,80.9,71.5,75.0,71.9,69.0,94,76,55,30.10,29.92,8,2,14,0.00
2014-9-6,80.5,73.6,68.1,73.0,66.8,60.0,95,80,65,30.09,29.95,9,3,17,0.22
2014-9-7,79.3,68.7,58.6,61.0,55.9,51.0,94,67,38,30.18,30.07,8,1,14,0.00
2014-9-8,85.5,70.1,56.7,63.0,57.5,53.0,89,67,43,30.11,29.97,5,1,9,0.00
2014-9-9,87.3,71.9,59.1,64.0,59.4,53.0,91,68,34,30.07,29.93,6,1,11,0.00
2014-9-10,83.0,75.5,66.0,72.0,68.4,62.0,89,79,69,29.96,29.73,13,4,20,0.00
2014-9-11,79.3,68.5,61.5,72.0,62.6,55.0,96,82,62,30.12,29.75,13,4,18,0.91
2014-9-12,66.4,62.0,58.3,55.0,54.0,52.0,83,75,64,30.19,30.09,8,2,11,0.00
2014-9-13,67.7,61.0,53.5,56.0,49.7,44.0,84,68,44,30.29,30.08,9,3,15,0.00
2014-9-14,74.4,59.5,46.9,53.0,48.4,45.0,93,70,39,30.30,30.16,5,1,7,0.00
2014-9-15,72.8,59.8,49.8,59.0,52.7,47.0,92,79,49,30.20,29.99,6,1,10,0.15
2014-9-16,62.6,60.0,57.6,58.0,54.0,51.0,94,81,68,30.14,30.07,9,2,12,0.02
2014-9-17,69.8,58.8,49.5,53.0,50.9,48.0,93,77,52,30.08,29.94,5,1,8,0.00
2014-9-18,75.2,62.1,50.6,53.0,50.2,48.0,93,69,41,30.10,29.99,7,1,12,0.00
2014-9-19,80.1,63.9,50.9,57.0,51.3,48.0,91,67,35,30.17,30.04,6,1,13,0.00
2014-9-20,82.9,69.5,56.3,67.0,61.8,54.0,93,78,55,30.07,29.88,12,2,17,0.00
2014-9-21,78.1,72.1,60.0,68.0,58.0,45.0,84,64,32,30.02,29.77,13,5,23,0.00
2014-9-22,67.4,57.6,49.2,50.0,44.5,41.0,80,63,42,30.26,30.02,10,3,14,0.00
2014-9-23,76.3,59.4,45.5,51.0,46.2,43.0,90,66,33,30.34,30.24,7,1,10,0.00
2014-9-24,82.1,63.1,48.3,55.0,49.7,45.0,90,66,29,30.35,30.23,5,0,9,0.00
2014-9-25,84.6,65.4,50.2,62.0,54.8,47.0,89,71,45,30.30,30.15,5,0,10,0.00
2014-9-26,85.6,68.8,55.2,59.0,55.7,52.0,92,68,35,30.23,30.13,8,1,12,0.00
2014-9-27,85.3,69.5,57.3,60.0,56.5,53.0,92,67,35,30.21,30.09,5,1,9,0.00
2014-9-28,85.5,69.4,57.5,66.0,58.6,54.0,88,71,43,30.14,30.00,4,0,10,0.04
2014-9-29,84.9,71.5,60.8,66.0,59.3,51.0,96,70,32,29.99,29.87,6,1,16,0.01
2014-9-30,79.5,65.1,55.0,61.0,55.8,50.0,89,74,51,29.96,29.85,8,2,13,0.00
2014-10-1,79.1,62.0,50.1,57.0,52.1,47.0,91,72,45,30.02,29.94,6,0,8,0.00
2014-10-2,87.1,71.6,56.6,63.0,58.8,53.0,90,67,42,30.01,29.80,10,2,16,0.00
2014-10-3,73.9,67.0,49.7,66.0,59.2,45.0,88,76,65,29.83,29.59,15,4,24,0.12
2014-10-4,51.6,48.4,44.3,44.0,35.2,28.0,83,62,42,29.89,29.79,16,6,22,0.00
2014-10-5,61.3,51.2,41.7,47.0,37.1,32.0,79,61,35,29.91,29.73,12,2,17,0.01
2014-10-6,64.4,55.1,49.5,57.0,50.0,42.0,93,83,61,29.82,29.69,7,1,22,0.40
2014-10-7,61.7,54.5,46.8,59.0,52.4,45.0,95,92,78,29.87,29.72,7,1,19,0.53
2014-10-8,70.8,58.1,48.8,54.0,48.1,43.0,97,74,38,30.07,29.86,14,2,16,0.01
2014-10-9,58.9,52.9,46.0,52.0,48.3,44.0,92,85,74,30.15,30.05,4,0,7,0.00
2014-10-10,56.9,53.7,49.9,53.0,50.9,47.0,93,90,81,30.08,30.01,8,2,10,0.69
2014-10-11,62.0,54.7,50.4,49.0,45.6,42.0,91,73,53,30.16,30.01,9,2,11,0.01
2014-10-12,65.2,54.0,43.3,57.0,47.7,40.0,91,80,65,30.15,29.97,4,0,7,0.00
2014-10-13,78.1,68.4,58.8,67.0,62.8,57.0,96,83,64,29.99,29.75,10,2,14,0.16
2014-10-14,72.5,64.1,55.9,64.0,60.1,53.0,93,87,65,29.77,29.55,13,2,21,0.48
2014-10-15,58.7,55.0,51.6,55.0,52.7,50.0,95,92,83,29.75,29.71,7,1,12,0.16
2014-10-16,62.5,57.4,53.6,55.0,53.3,50.0,95,86,74,29.84,29.70,12,2,12,0.03
2014-10-17,73.1,60.2,50.1,55.0,49.9,46.0,93,72,43,29.83,29.64,17,4,21,0.00
2014-10-18,59.2,53.4,47.1,48.0,45.3,42.0,89,75,62,30.12,29.80,12,4,16,0.02
2014-10-19,60.2,50.7,45.3,45.0,41.6,38.0,86,72,49,30.24,30.05,7,1,11,0.01
2014-10-20,65.2,54.1,44.2,53.0,47.3,41.0,91,79,60,30.05,29.82,10,2,20,0.00
2014-10-21,56.4,53.0,48.6,51.0,44.8,39.0,91,74,55,30.17,29.88,9,4,17,0.00
2014-10-22,55.2,50.0,44.9,42.0,40.3,37.0,79,70,60,30.30,30.17,10,3,13,0.00
2014-10-23,63.1,51.0,41.6,45.0,42.1,39.0,92,73,45,30.26,30.11,5,0,6,0.00
2014-10-24,68.3,53.1,42.2,48.0,42.6,38.0,91,71,36,30.13,30.01,6,1,10,0.00
2014-10-25,75.6,59.2,44.9,59.0,50.2,42.0,91,74,51,30.03,29.88,9,2,15,0.00
2014-10-26,72.7,59.5,45.1,53.0,38.6,31.0,79,50,22,30.02,29.90,5,0,10,0.00
2014-10-27,81.4,63.6,45.5,63.0,51.2,40.0,81,66,47,29.95,29.80,15,2,17,0.00
2014-10-28,72.0,65.3,57.8,63.0,56.4,47.0,83,73,63,30.01,29.85,11,2,17,0.01
2014-10-29,60.5,54.3,47.0,46.0,39.2,35.0,78,58,42,30.13,30.00,10,3,20,0.00
2014-10-30,57.6,48.1,39.3,39.0,36.0,34.0,86,64,45,30.17,30.04,5,0,9,0.00
2014-10-31,48.6,42.9,38.1,43.0,38.4,32.0,90,84,75,30.03,29.91,13,2,26,0.12
2014-11-1,40.5,37.0,32.5,32.0,28.7,26.0,82,72,57,30.38,30.04,20,6,26,0.00
2014-11-2,52.8,36.6,26.1,28.0,24.2,19.0,88,65,29,30.51,30.38,3,0,7,0.00
2014-11-3,64.0,46.9,31.0,35.0,28.4,23.0,81,54,22,30.39,30.19,10,1,16,0.00
2014-11-4,67.4,54.4,42.6,53.0,41.6,31.0,91,64,40,30.20,30.05,15,3,23,0.05
2014-11-5,57.5,53.0,48.0,52.0,48.3,45.0,94,84,68,30.23,30.01,3,0,6,0.04
2014-11-6,53.1,48.8,42.6,52.0,43.7,36.0,95,83,64,30.07,29.84,13,4,22,0.00
2014-11-7,48.8,41.9,34.8,37.0,31.4,29.0,83,67,48,30.21,30.02,9,3,16,0.00
2014-11-8,56.1,43.8,33.5,39.0,34.2,30.0,86,70,51,30.02,29.83,10,3,18,0.00
2014-11-9,55.5,44.7,33.8,35.0,31.9,29.0,87,63,39,30.06,29.92,7,1,12,0.00
2014-11-10,66.1,50.5,34.9,38.0,34.4,31.0,87,58,29,29.99,29.78,11,2,15,0.00
2014-11-11,66.3,53.1,38.2,55.0,43.4,34.0,89,70,55,30.06,29.75,17,3,22,0.06
2014-11-12,39.1,36.7,33.5,33.0,27.0,23.0,82,68,62,30.29,30.07,10,3,15,0.00
2014-11-13,33.5,29.5,26.1,24.0,17.9,12.0,70,62,51,30.35,30.26,10,3,14,0.00
2014-11-14,35.0,27.6,22.9,20.0,16.4,13.0,81,64,42,30.42,30.33,8,1,10,0.00
2014-11-15,37.8,28.5,17.2,21.0,17.2,14.0,87,65,42,30.49,30.26,3,0,8,0.00
2014-11-16,39.8,35.2,31.7,35.0,29.7,22.0,93,81,61,30.28,29.90,3,0,9,0.17
2014-11-17,34.1,26.5,17.7,32.0,22.6,10.0,94,85,72,30.14,29.80,9,2,17,0.11
2014-11-18,22.6,18.4,14.4,13.0,10.1,7.0,79,70,62,30.33,30.12,12,4,19,0.00
2014-11-19,42.9,29.5,14.9,29.0,19.2,9.0,79,66,54,30.32,29.91,18,3,24,0.05
2014-11-20,33.3,28.4,24.4,23.0,16.1,13.0,72,61,49,30.30,30.09,11,2,18,0.00
2014-11-21,36.8,26.9,17.3,18.0,13.8,9.0,77,59,38,30.56,30.31,5,0,11,0.00
2014-11-22,60.3,43.1,22.5,41.0,31.3,16.0,82,65,45,30.41,30.06,22,1,22,0.02
2014-11-23,61.0,52.7,43.6,55.0,45.1,36.0,92,76,55,30.06,29.26,16,1,17,0.70
2014-11-24,63.0,52.7,41.4,56.0,45.0,33.0,92,75,63,29.92,29.25,29,7,45,0.04
2014-11-25,45.3,39.2,33.9,32.0,29.3,27.0,78,68,55,30.20,29.92,9,3,17,0.00
2014-11-26,40.4,33.5,27.9,30.0,26.8,24.0,88,77,64,30.18,30.04,5,2,10,0.00
2014-11-27,34.1,31.1,28.5,25.0,23.2,18.0,80,73,61,30.42,30.08,14,4,15,0.00
2014-11-28,35.7,31.1,27.3,21.0,18.9,16.0,76,61,49,30.43,30.10,9,2,11,0.00
2014-11-29,57.5,45.5,32.4,49.0,34.4,20.0,74,65,58,30.11,29.87,13,4,20,0.00
2014-11-30,67.1,62.3,57.6,56.0,53.3,49.0,81,73,62,30.05,29.87,12,5,23,0.00
2014-12-1,61.0,40.4,32.3,56.0,36.1,24.0,93,84,72,30.52,30.07,10,4,17,0.59
2014-12-2,38.6,34.7,31.6,37.0,30.4,24.0,94,84,73,30.48,30.17,8,1,11,0.01
2014-12-3,41.6,36.3,30.0,36.0,31.4,28.0,91,83,66,30.41,30.16,11,3,15,0.00
2014-12-4,36.9,33.4,28.7,34.0,31.0,27.0,93,90,85,30.43,30.28,5,0,6,0.16
2014-12-5,46.0,40.5,35.7,45.0,39.1,34.0,96,94,91,30.28,30.03,2,0,4,0.73
2014-12-6,48.2,41.9,37.7,47.0,37.7,28.0,96,85,66,30.54,29.99,16,6,21,0.59
2014-12-7,43.1,37.0,31.6,30.0,28.3,26.0,82,71,60,30.61,30.36,10,2,14,0.00
2014-12-8,48.6,41.0,33.6,39.0,33.3,28.0,85,74,61,30.36,30.09,7,1,13,0.00
2014-12-9,45.4,40.3,38.4,39.0,36.2,33.0,88,85,77,30.24,30.07,10,3,13,0.02
2014-12-10,38.5,35.5,31.6,33.0,27.2,23.0,81,72,67,30.29,30.20,10,4,17,0.00
2014-12-11,41.6,34.2,29.5,26.0,23.6,19.0,78,66,46,30.28,30.18,10,3,11,0.00
2014-12-12,45.5,34.2,26.9,33.0,27.5,23.0,88,77,48,30.38,30.27,10,3,14,0.00
2014-12-13,45.3,41.1,36.1,37.0,34.8,32.0,87,78,72,30.32,30.18,7,2,12,0.00
2014-12-14,46.9,44.8,41.3,40.0,38.3,36.0,82,78,74,30.21,30.12,3,0,7,0.00
2014-12-15,52.6,45.7,40.4,42.0,38.4,36.0,87,76,62,30.13,29.79,9,1,12,0.02
2014-12-16,50.8,45.3,36.8,48.0,41.3,32.0,92,86,80,30.13,29.68,12,5,22,0.17
2014-12-17,36.7,32.0,28.1,32.0,26.1,22.0,86,79,75,30.30,30.14,10,4,15,0.00
2014-12-18,31.0,28.6,26.2,23.0,21.3,20.0,80,74,68,30.32,30.23,5,1,12,0.00
2014-12-19,31.5,29.8,27.6,24.0,22.4,21.0,82,74,68,30.33,30.26,7,1,10,0.00
2014-12-20,33.1,31.6,30.1,28.0,25.8,24.0,86,79,73,30.32,30.27,2,0,5,0.01
2014-12-21,37.4,31.4,26.2,28.0,25.8,23.0,88,80,68,30.34,30.14,4,1,8,0.00
2014-12-22,51.8,40.1,26.0,42.0,33.7,23.0,90,78,63,30.13,29.72,3,0,8,0.16
2014-12-23,54.8,50.6,44.6,54.0,49.2,42.0,96,95,90,29.81,29.64,2,0,6,0.07
2014-12-24,55.5,48.7,40.0,55.0,46.7,35.0,97,93,82,29.74,29.32,14,2,28,0.14
2014-12-25,41.8,38.1,31.2,36.0,33.1,29.0,92,82,70,30.21,29.74,12,3,15,0.01
2014-12-26,53.6,40.1,27.9,40.0,33.3,26.0,95,78,54,30.28,30.17,9,1,13,0.01
2014-12-27,51.5,44.5,36.6,46.0,40.8,33.0,95,87,70,30.22,30.05,8,1,17,0.36
2014-12-28,47.3,37.8,34.2,46.0,33.2,29.0,95,83,74,30.23,29.99,8,2,15,0.07
2014-12-29,36.0,32.6,29.6,29.0,25.5,21.0,85,75,66,30.40,30.22,9,3,12,0.00
2014-12-30,34.2,29.7,25.5,22.0,18.8,16.0,75,65,52,30.58,30.38,10,3,11,0.00
2014-12-31,28.8,22.6,16.3,18.0,8.3,4.0,74,56,37,30.61,30.36,8,3,14,0.00
2015-1-1,38.5,29.7,21.1,24.0,15.2,6.0,68,56,42,30.36,30.13,10,3,20,0.00
2015-1-2,38.3,35.0,30.1,32.0,28.3,24.0,83,76,70,30.37,30.24,3,0,7,0.00